sensor_id;sensor_type;location;lat;lon;timestamp;P1;durP1;ratioP1;P2;durP2;ratioP2
66856;SDS011;53766;50.280;19.160;2023-04-16T00:02:16;6.88;;;4.47;;
66856;SDS011;53766;50.280;19.160;2023-04-16T00:04:44;7.15;;;4.55;;
66856;SDS011;53766;50.280;19.160;2023-04-16T00:07:12;7.38;;;4.63;;
66856;SDS011;53766;50.280;19.160;2023-04-16T00:09:39;8.65;;;5.22;;
66856;SDS011;53766;50.280;19.160;2023-04-16T00:12:07;8.13;;;4.75;;
66856;SDS011;53766;50.280;19.160;2023-04-16T00:14:34;7.72;;;4.65;;
66856;SDS011;53766;50.280;19.160;2023-04-16T00:17:02;7.32;;;4.60;;
66856;SDS011;53766;50.280;19.160;2023-04-16T00:19:30;6.03;;;4.30;;
66856;SDS011;53766;50.280;19.160;2023-04-16T00:21:57;6.80;;;4.65;;
66856;SDS011;53766;50.280;19.160;2023-04-16T00:24:24;7.50;;;4.55;;
66856;SDS011;53766;50.280;19.160;2023-04-16T00:26:52;8.27;;;4.80;;
66856;SDS011;53766;50.280;19.160;2023-04-16T00:29:20;8.18;;;4.47;;
66856;SDS011;53766;50.280;19.160;2023-04-16T00:31:47;7.45;;;4.75;;
66856;SDS011;53766;50.280;19.160;2023-04-16T00:34:15;7.65;;;4.68;;
66856;SDS011;53766;50.280;19.160;2023-04-16T00:36:42;7.22;;;4.80;;
66856;SDS011;53766;50.280;19.160;2023-04-16T00:39:10;10.70;;;5.38;;
66856;SDS011;53766;50.280;19.160;2023-04-16T00:41:37;8.00;;;4.80;;
66856;SDS011;53766;50.280;19.160;2023-04-16T00:44:05;7.80;;;4.97;;
66856;SDS011;53766;50.280;19.160;2023-04-16T00:46:32;8.63;;;5.10;;
66856;SDS011;53766;50.280;19.160;2023-04-16T00:49:01;8.02;;;5.03;;
66856;SDS011;53766;50.280;19.160;2023-04-16T00:51:29;9.30;;;5.10;;
66856;SDS011;53766;50.280;19.160;2023-04-16T00:53:57;7.97;;;4.75;;
66856;SDS011;53766;50.280;19.160;2023-04-16T00:56:25;8.68;;;5.13;;
66856;SDS011;53766;50.280;19.160;2023-04-16T00:58:56;7.93;;;4.85;;
66856;SDS011;53766;50.280;19.160;2023-04-16T01:01:23;8.85;;;5.30;;
66856;SDS011;53766;50.280;19.160;2023-04-16T01:03:51;8.68;;;5.10;;
66856;SDS011;53766;50.280;19.160;2023-04-16T01:06:19;8.77;;;4.68;;
66856;SDS011;53766;50.280;19.160;2023-04-16T01:08:47;8.02;;;4.90;;
66856;SDS011;53766;50.280;19.160;2023-04-16T01:11:15;8.07;;;4.68;;
66856;SDS011;53766;50.280;19.160;2023-04-16T01:13:42;8.95;;;5.47;;
66856;SDS011;53766;50.280;19.160;2023-04-16T01:16:10;8.73;;;5.35;;
66856;SDS011;53766;50.280;19.160;2023-04-16T01:18:39;8.85;;;5.00;;
66856;SDS011;53766;50.280;19.160;2023-04-16T01:21:06;8.95;;;4.88;;
66856;SDS011;53766;50.280;19.160;2023-04-16T01:23:34;8.15;;;5.38;;
66856;SDS011;53766;50.280;19.160;2023-04-16T01:26:02;7.63;;;5.43;;
66856;SDS011;53766;50.280;19.160;2023-04-16T01:28:30;9.52;;;5.05;;
66856;SDS011;53766;50.280;19.160;2023-04-16T01:30:58;9.45;;;5.40;;
66856;SDS011;53766;50.280;19.160;2023-04-16T01:33:25;7.65;;;4.97;;
66856;SDS011;53766;50.280;19.160;2023-04-16T01:35:53;8.82;;;5.07;;
66856;SDS011;53766;50.280;19.160;2023-04-16T01:38:20;9.23;;;5.28;;
66856;SDS011;53766;50.280;19.160;2023-04-16T01:40:48;8.50;;;4.95;;
66856;SDS011;53766;50.280;19.160;2023-04-16T01:43:15;9.65;;;5.63;;
66856;SDS011;53766;50.280;19.160;2023-04-16T01:45:43;7.80;;;5.03;;
66856;SDS011;53766;50.280;19.160;2023-04-16T01:48:10;7.70;;;5.05;;
66856;SDS011;53766;50.280;19.160;2023-04-16T01:50:38;9.68;;;5.40;;
66856;SDS011;53766;50.280;19.160;2023-04-16T01:53:06;9.20;;;5.00;;
66856;SDS011;53766;50.280;19.160;2023-04-16T01:55:35;7.95;;;5.20;;
66856;SDS011;53766;50.280;19.160;2023-04-16T01:58:03;9.65;;;5.65;;
66856;SDS011;53766;50.280;19.160;2023-04-16T02:00:30;8.95;;;5.40;;
66856;SDS011;53766;50.280;19.160;2023-04-16T02:02:58;8.13;;;5.22;;
66856;SDS011;53766;50.280;19.160;2023-04-16T02:05:26;9.30;;;5.97;;
66856;SDS011;53766;50.280;19.160;2023-04-16T02:07:54;8.73;;;5.30;;
66856;SDS011;53766;50.280;19.160;2023-04-16T02:10:21;8.35;;;5.72;;
66856;SDS011;53766;50.280;19.160;2023-04-16T02:12:49;8.90;;;5.22;;
66856;SDS011;53766;50.280;19.160;2023-04-16T02:15:17;9.02;;;5.60;;
66856;SDS011;53766;50.280;19.160;2023-04-16T02:17:44;9.48;;;5.55;;
66856;SDS011;53766;50.280;19.160;2023-04-16T02:20:13;8.82;;;5.63;;
66856;SDS011;53766;50.280;19.160;2023-04-16T02:22:41;8.65;;;5.65;;
66856;SDS011;53766;50.280;19.160;2023-04-16T02:25:10;9.30;;;5.53;;
66856;SDS011;53766;50.280;19.160;2023-04-16T02:27:37;8.18;;;5.45;;
66856;SDS011;53766;50.280;19.160;2023-04-16T02:30:05;8.57;;;4.88;;
66856;SDS011;53766;50.280;19.160;2023-04-16T02:32:33;9.68;;;5.47;;
66856;SDS011;53766;50.280;19.160;2023-04-16T02:35:00;8.93;;;5.47;;
66856;SDS011;53766;50.280;19.160;2023-04-16T02:37:30;9.32;;;5.10;;
66856;SDS011;53766;50.280;19.160;2023-04-16T02:39:57;8.90;;;5.20;;
66856;SDS011;53766;50.280;19.160;2023-04-16T02:42:25;8.25;;;5.50;;
66856;SDS011;53766;50.280;19.160;2023-04-16T02:44:52;9.10;;;5.45;;
66856;SDS011;53766;50.280;19.160;2023-04-16T02:47:20;10.85;;;6.15;;
66856;SDS011;53766;50.280;19.160;2023-04-16T02:49:47;9.50;;;5.60;;
66856;SDS011;53766;50.280;19.160;2023-04-16T02:52:15;9.48;;;5.57;;
66856;SDS011;53766;50.280;19.160;2023-04-16T02:54:42;7.80;;;5.05;;
66856;SDS011;53766;50.280;19.160;2023-04-16T02:57:09;9.25;;;5.70;;
66856;SDS011;53766;50.280;19.160;2023-04-16T02:59:37;11.10;;;5.45;;
66856;SDS011;53766;50.280;19.160;2023-04-16T03:02:04;8.45;;;5.68;;
66856;SDS011;53766;50.280;19.160;2023-04-16T03:04:32;8.95;;;5.72;;
66856;SDS011;53766;50.280;19.160;2023-04-16T03:07:00;9.68;;;5.25;;
66856;SDS011;53766;50.280;19.160;2023-04-16T03:09:27;8.48;;;5.32;;
66856;SDS011;53766;50.280;19.160;2023-04-16T03:11:55;8.77;;;5.40;;
66856;SDS011;53766;50.280;19.160;2023-04-16T03:14:23;9.02;;;5.50;;
66856;SDS011;53766;50.280;19.160;2023-04-16T03:16:50;8.68;;;5.43;;
66856;SDS011;53766;50.280;19.160;2023-04-16T03:19:18;9.63;;;5.82;;
66856;SDS011;53766;50.280;19.160;2023-04-16T03:21:45;8.95;;;5.57;;
66856;SDS011;53766;50.280;19.160;2023-04-16T03:24:13;9.52;;;5.85;;
66856;SDS011;53766;50.280;19.160;2023-04-16T03:26:40;9.10;;;5.70;;
66856;SDS011;53766;50.280;19.160;2023-04-16T03:29:08;8.52;;;5.80;;
66856;SDS011;53766;50.280;19.160;2023-04-16T03:31:35;10.48;;;5.70;;
66856;SDS011;53766;50.280;19.160;2023-04-16T03:34:03;9.48;;;5.47;;
66856;SDS011;53766;50.280;19.160;2023-04-16T03:36:30;9.35;;;5.47;;
66856;SDS011;53766;50.280;19.160;2023-04-16T03:38:59;10.05;;;5.88;;
66856;SDS011;53766;50.280;19.160;2023-04-16T03:41:27;8.88;;;5.60;;
66856;SDS011;53766;50.280;19.160;2023-04-16T03:43:54;8.40;;;5.38;;
66856;SDS011;53766;50.280;19.160;2023-04-16T03:46:22;8.80;;;5.90;;
66856;SDS011;53766;50.280;19.160;2023-04-16T03:48:50;9.65;;;5.75;;
66856;SDS011;53766;50.280;19.160;2023-04-16T03:51:17;10.98;;;5.65;;
66856;SDS011;53766;50.280;19.160;2023-04-16T03:53:45;9.10;;;5.50;;
66856;SDS011;53766;50.280;19.160;2023-04-16T03:56:12;9.75;;;5.82;;
66856;SDS011;53766;50.280;19.160;2023-04-16T03:58:40;9.68;;;5.80;;
66856;SDS011;53766;50.280;19.160;2023-04-16T04:01:08;9.40;;;5.32;;
66856;SDS011;53766;50.280;19.160;2023-04-16T04:03:35;9.73;;;5.82;;
66856;SDS011;53766;50.280;19.160;2023-04-16T04:06:06;8.95;;;5.32;;
66856;SDS011;53766;50.280;19.160;2023-04-16T04:08:34;9.38;;;5.68;;
66856;SDS011;53766;50.280;19.160;2023-04-16T04:11:02;10.05;;;6.05;;
66856;SDS011;53766;50.280;19.160;2023-04-16T04:13:30;10.23;;;5.40;;
66856;SDS011;53766;50.280;19.160;2023-04-16T04:15:58;9.75;;;5.90;;
66856;SDS011;53766;50.280;19.160;2023-04-16T04:18:25;9.27;;;5.60;;
66856;SDS011;53766;50.280;19.160;2023-04-16T04:20:53;10.00;;;5.85;;
66856;SDS011;53766;50.280;19.160;2023-04-16T04:23:20;9.68;;;5.72;;
66856;SDS011;53766;50.280;19.160;2023-04-16T04:25:48;9.10;;;5.78;;
66856;SDS011;53766;50.280;19.160;2023-04-16T04:28:16;9.60;;;5.80;;
66856;SDS011;53766;50.280;19.160;2023-04-16T04:30:44;9.05;;;6.03;;
66856;SDS011;53766;50.280;19.160;2023-04-16T04:33:11;11.13;;;5.70;;
66856;SDS011;53766;50.280;19.160;2023-04-16T04:35:38;10.48;;;5.75;;
66856;SDS011;53766;50.280;19.160;2023-04-16T04:38:06;8.75;;;5.50;;
66856;SDS011;53766;50.280;19.160;2023-04-16T04:40:33;10.13;;;5.97;;
66856;SDS011;53766;50.280;19.160;2023-04-16T04:43:01;9.00;;;5.65;;
66856;SDS011;53766;50.280;19.160;2023-04-16T04:45:29;8.70;;;5.85;;
66856;SDS011;53766;50.280;19.160;2023-04-16T04:47:58;9.77;;;5.50;;
66856;SDS011;53766;50.280;19.160;2023-04-16T04:50:25;12.00;;;5.88;;
66856;SDS011;53766;50.280;19.160;2023-04-16T04:52:53;12.18;;;5.97;;
66856;SDS011;53766;50.280;19.160;2023-04-16T04:55:21;10.77;;;5.40;;
66856;SDS011;53766;50.280;19.160;2023-04-16T04:57:48;9.18;;;5.70;;
66856;SDS011;53766;50.280;19.160;2023-04-16T05:00:16;9.88;;;5.95;;
66856;SDS011;53766;50.280;19.160;2023-04-16T05:02:43;10.07;;;6.10;;
66856;SDS011;53766;50.280;19.160;2023-04-16T05:05:11;10.77;;;5.80;;
66856;SDS011;53766;50.280;19.160;2023-04-16T05:07:39;8.82;;;5.68;;
66856;SDS011;53766;50.280;19.160;2023-04-16T05:10:07;10.00;;;5.50;;
66856;SDS011;53766;50.280;19.160;2023-04-16T05:12:35;8.40;;;5.63;;
66856;SDS011;53766;50.280;19.160;2023-04-16T05:15:03;10.43;;;6.10;;
66856;SDS011;53766;50.280;19.160;2023-04-16T05:17:31;11.45;;;6.03;;
66856;SDS011;53766;50.280;19.160;2023-04-16T05:19:59;26.83;;;6.95;;
66856;SDS011;53766;50.280;19.160;2023-04-16T05:22:26;42.03;;;8.15;;
66856;SDS011;53766;50.280;19.160;2023-04-16T05:24:54;42.40;;;8.77;;
66856;SDS011;53766;50.280;19.160;2023-04-16T05:27:22;50.70;;;8.70;;
66856;SDS011;53766;50.280;19.160;2023-04-16T05:29:49;47.80;;;8.52;;
66856;SDS011;53766;50.280;19.160;2023-04-16T05:32:17;50.35;;;9.13;;
66856;SDS011;53766;50.280;19.160;2023-04-16T05:34:45;37.60;;;8.00;;
66856;SDS011;53766;50.280;19.160;2023-04-16T05:37:12;42.88;;;8.65;;
66856;SDS011;53766;50.280;19.160;2023-04-16T05:39:40;43.88;;;9.35;;
66856;SDS011;53766;50.280;19.160;2023-04-16T05:42:07;43.53;;;8.27;;
66856;SDS011;53766;50.280;19.160;2023-04-16T05:44:35;36.75;;;8.60;;
66856;SDS011;53766;50.280;19.160;2023-04-16T05:47:02;36.33;;;8.32;;
66856;SDS011;53766;50.280;19.160;2023-04-16T05:49:30;29.67;;;7.70;;
66856;SDS011;53766;50.280;19.160;2023-04-16T05:51:57;49.40;;;9.10;;
66856;SDS011;53766;50.280;19.160;2023-04-16T05:54:24;43.10;;;8.45;;
66856;SDS011;53766;50.280;19.160;2023-04-16T05:56:52;39.00;;;8.32;;
66856;SDS011;53766;50.280;19.160;2023-04-16T05:59:20;35.22;;;7.82;;
66856;SDS011;53766;50.280;19.160;2023-04-16T06:01:47;29.90;;;8.70;;
66856;SDS011;53766;50.280;19.160;2023-04-16T06:04:15;35.35;;;8.18;;
66856;SDS011;53766;50.280;19.160;2023-04-16T06:06:42;31.88;;;8.25;;
66856;SDS011;53766;50.280;19.160;2023-04-16T06:09:10;30.52;;;7.55;;
66856;SDS011;53766;50.280;19.160;2023-04-16T06:11:38;29.77;;;7.43;;
66856;SDS011;53766;50.280;19.160;2023-04-16T06:14:05;32.03;;;7.72;;
66856;SDS011;53766;50.280;19.160;2023-04-16T06:16:33;24.92;;;7.85;;
66856;SDS011;53766;50.280;19.160;2023-04-16T06:19:01;38.88;;;8.32;;
66856;SDS011;53766;50.280;19.160;2023-04-16T06:21:29;30.05;;;7.63;;
66856;SDS011;53766;50.280;19.160;2023-04-16T06:23:57;29.73;;;7.40;;
66856;SDS011;53766;50.280;19.160;2023-04-16T06:26:25;24.67;;;7.20;;
66856;SDS011;53766;50.280;19.160;2023-04-16T06:28:53;37.72;;;8.07;;
66856;SDS011;53766;50.280;19.160;2023-04-16T06:31:20;24.05;;;7.53;;
66856;SDS011;53766;50.280;19.160;2023-04-16T06:33:48;32.53;;;8.85;;
66856;SDS011;53766;50.280;19.160;2023-04-16T06:36:15;36.08;;;7.80;;
66856;SDS011;53766;50.280;19.160;2023-04-16T06:38:43;26.90;;;7.68;;
66856;SDS011;53766;50.280;19.160;2023-04-16T06:41:11;22.95;;;7.35;;
66856;SDS011;53766;50.280;19.160;2023-04-16T06:43:40;24.10;;;8.32;;
66856;SDS011;53766;50.280;19.160;2023-04-16T06:46:08;31.92;;;7.90;;
66856;SDS011;53766;50.280;19.160;2023-04-16T06:48:35;22.80;;;8.13;;
66856;SDS011;53766;50.280;19.160;2023-04-16T06:51:03;28.92;;;8.43;;
66856;SDS011;53766;50.280;19.160;2023-04-16T06:53:30;27.98;;;8.82;;
66856;SDS011;53766;50.280;19.160;2023-04-16T06:55:58;25.77;;;8.10;;
66856;SDS011;53766;50.280;19.160;2023-04-16T06:58:25;20.83;;;8.98;;
66856;SDS011;53766;50.280;19.160;2023-04-16T07:00:53;27.20;;;9.93;;
66856;SDS011;53766;50.280;19.160;2023-04-16T07:03:21;18.50;;;9.57;;
66856;SDS011;53766;50.280;19.160;2023-04-16T07:05:48;17.92;;;9.35;;
66856;SDS011;53766;50.280;19.160;2023-04-16T07:08:16;28.80;;;10.20;;
66856;SDS011;53766;50.280;19.160;2023-04-16T07:10:44;26.52;;;9.85;;
66856;SDS011;53766;50.280;19.160;2023-04-16T07:13:11;22.90;;;9.85;;
66856;SDS011;53766;50.280;19.160;2023-04-16T07:15:39;27.35;;;10.90;;
66856;SDS011;53766;50.280;19.160;2023-04-16T07:18:07;23.40;;;10.25;;
66856;SDS011;53766;50.280;19.160;2023-04-16T07:20:35;21.17;;;10.05;;
66856;SDS011;53766;50.280;19.160;2023-04-16T07:23:03;19.77;;;9.82;;
66856;SDS011;53766;50.280;19.160;2023-04-16T07:25:30;22.95;;;10.18;;
66856;SDS011;53766;50.280;19.160;2023-04-16T07:27:57;19.55;;;10.00;;
66856;SDS011;53766;50.280;19.160;2023-04-16T07:30:25;18.70;;;9.70;;
66856;SDS011;53766;50.280;19.160;2023-04-16T07:33:02;19.63;;;10.05;;
66856;SDS011;53766;50.280;19.160;2023-04-16T07:35:30;22.08;;;10.60;;
66856;SDS011;53766;50.280;19.160;2023-04-16T07:37:58;21.98;;;9.75;;
66856;SDS011;53766;50.280;19.160;2023-04-16T07:40:25;22.52;;;10.43;;
66856;SDS011;53766;50.280;19.160;2023-04-16T07:42:53;20.42;;;10.18;;
66856;SDS011;53766;50.280;19.160;2023-04-16T07:45:22;20.80;;;9.90;;
66856;SDS011;53766;50.280;19.160;2023-04-16T07:47:49;19.52;;;9.63;;
66856;SDS011;53766;50.280;19.160;2023-04-16T07:50:17;17.83;;;9.70;;
66856;SDS011;53766;50.280;19.160;2023-04-16T07:52:45;18.83;;;10.18;;
66856;SDS011;53766;50.280;19.160;2023-04-16T07:55:13;18.88;;;9.57;;
66856;SDS011;53766;50.280;19.160;2023-04-16T07:57:41;17.70;;;8.90;;
66856;SDS011;53766;50.280;19.160;2023-04-16T08:00:09;16.40;;;9.70;;
66856;SDS011;53766;50.280;19.160;2023-04-16T08:02:37;17.23;;;8.85;;
66856;SDS011;53766;50.280;19.160;2023-04-16T08:05:05;21.63;;;9.32;;
66856;SDS011;53766;50.280;19.160;2023-04-16T08:07:33;20.15;;;9.75;;
66856;SDS011;53766;50.280;19.160;2023-04-16T08:10:00;18.40;;;9.13;;
66856;SDS011;53766;50.280;19.160;2023-04-16T08:12:28;17.02;;;8.75;;
66856;SDS011;53766;50.280;19.160;2023-04-16T08:14:56;15.77;;;8.60;;
66856;SDS011;53766;50.280;19.160;2023-04-16T08:17:24;15.10;;;8.52;;
66856;SDS011;53766;50.280;19.160;2023-04-16T08:19:52;16.95;;;8.55;;
66856;SDS011;53766;50.280;19.160;2023-04-16T08:22:20;15.25;;;8.20;;
66856;SDS011;53766;50.280;19.160;2023-04-16T08:24:48;16.33;;;8.25;;
66856;SDS011;53766;50.280;19.160;2023-04-16T08:27:16;17.75;;;8.48;;
66856;SDS011;53766;50.280;19.160;2023-04-16T08:29:45;13.35;;;8.40;;
66856;SDS011;53766;50.280;19.160;2023-04-16T08:32:14;15.68;;;8.07;;
66856;SDS011;53766;50.280;19.160;2023-04-16T08:34:41;15.43;;;7.93;;
66856;SDS011;53766;50.280;19.160;2023-04-16T08:37:09;14.98;;;7.75;;
66856;SDS011;53766;50.280;19.160;2023-04-16T08:39:36;11.70;;;7.20;;
66856;SDS011;53766;50.280;19.160;2023-04-16T08:42:04;12.68;;;7.40;;
66856;SDS011;53766;50.280;19.160;2023-04-16T08:44:36;13.10;;;7.55;;
66856;SDS011;53766;50.280;19.160;2023-04-16T08:47:08;14.80;;;7.20;;
66856;SDS011;53766;50.280;19.160;2023-04-16T08:49:42;11.60;;;7.30;;
66856;SDS011;53766;50.280;19.160;2023-04-16T08:52:13;12.52;;;6.78;;
66856;SDS011;53766;50.280;19.160;2023-04-16T08:57:24;9.63;;;6.22;;
66856;SDS011;53766;50.280;19.160;2023-04-16T08:59:56;13.88;;;7.00;;
66856;SDS011;53766;50.280;19.160;2023-04-16T09:02:24;12.52;;;6.82;;
66856;SDS011;53766;50.280;19.160;2023-04-16T09:04:53;10.93;;;6.63;;
66856;SDS011;53766;50.280;19.160;2023-04-16T09:07:22;10.75;;;6.45;;
66856;SDS011;53766;50.280;19.160;2023-04-16T09:09:51;10.75;;;6.72;;
66856;SDS011;53766;50.280;19.160;2023-04-16T09:12:22;10.15;;;6.57;;
66856;SDS011;53766;50.280;19.160;2023-04-16T09:14:49;10.30;;;6.43;;
66856;SDS011;53766;50.280;19.160;2023-04-16T09:17:17;11.43;;;6.40;;
66856;SDS011;53766;50.280;19.160;2023-04-16T09:19:45;9.90;;;6.38;;
66856;SDS011;53766;50.280;19.160;2023-04-16T09:22:12;11.07;;;5.82;;
66856;SDS011;53766;50.280;19.160;2023-04-16T09:24:40;9.25;;;6.30;;
66856;SDS011;53766;50.280;19.160;2023-04-16T09:27:08;10.23;;;6.35;;
66856;SDS011;53766;50.280;19.160;2023-04-16T09:29:37;10.65;;;6.25;;
66856;SDS011;53766;50.280;19.160;2023-04-16T09:32:08;9.48;;;6.30;;
66856;SDS011;53766;50.280;19.160;2023-04-16T09:34:52;9.07;;;5.93;;
66856;SDS011;53766;50.280;19.160;2023-04-16T09:37:28;11.82;;;5.72;;
66856;SDS011;53766;50.280;19.160;2023-04-16T09:40:00;9.20;;;5.78;;
66856;SDS011;53766;50.280;19.160;2023-04-16T09:42:31;10.35;;;5.97;;
66856;SDS011;53766;50.280;19.160;2023-04-16T09:45:00;9.48;;;5.88;;
66856;SDS011;53766;50.280;19.160;2023-04-16T09:47:38;16.40;;;7.38;;
66856;SDS011;53766;50.280;19.160;2023-04-16T09:50:07;9.93;;;5.82;;
66856;SDS011;53766;50.280;19.160;2023-04-16T09:52:38;8.45;;;6.30;;
66856;SDS011;53766;50.280;19.160;2023-04-16T09:55:06;10.70;;;5.88;;
66856;SDS011;53766;50.280;19.160;2023-04-16T09:57:35;9.65;;;5.57;;
66856;SDS011;53766;50.280;19.160;2023-04-16T10:00:04;11.00;;;5.55;;
66856;SDS011;53766;50.280;19.160;2023-04-16T10:02:35;8.43;;;5.55;;
66856;SDS011;53766;50.280;19.160;2023-04-16T10:05:07;8.55;;;5.28;;
66856;SDS011;53766;50.280;19.160;2023-04-16T10:07:36;8.07;;;5.32;;
66856;SDS011;53766;50.280;19.160;2023-04-16T10:10:04;8.23;;;5.30;;
66856;SDS011;53766;50.280;19.160;2023-04-16T10:12:32;9.52;;;5.95;;
66856;SDS011;53766;50.280;19.160;2023-04-16T10:15:00;11.30;;;6.10;;
66856;SDS011;53766;50.280;19.160;2023-04-16T10:17:27;8.75;;;5.68;;
66856;SDS011;53766;50.280;19.160;2023-04-16T10:19:57;10.73;;;5.45;;
66856;SDS011;53766;50.280;19.160;2023-04-16T10:22:27;8.73;;;5.78;;
66856;SDS011;53766;50.280;19.160;2023-04-16T10:24:55;8.65;;;5.38;;
66856;SDS011;53766;50.280;19.160;2023-04-16T10:27:24;7.95;;;5.30;;
66856;SDS011;53766;50.280;19.160;2023-04-16T10:29:52;10.90;;;5.78;;
66856;SDS011;53766;50.280;19.160;2023-04-16T10:32:21;7.18;;;5.38;;
66856;SDS011;53766;50.280;19.160;2023-04-16T10:34:54;8.32;;;5.00;;
66856;SDS011;53766;50.280;19.160;2023-04-16T10:37:31;7.50;;;5.50;;
66856;SDS011;53766;50.280;19.160;2023-04-16T10:39:59;9.13;;;5.53;;
66856;SDS011;53766;50.280;19.160;2023-04-16T10:42:26;9.32;;;5.45;;
66856;SDS011;53766;50.280;19.160;2023-04-16T10:44:57;9.68;;;5.47;;
66856;SDS011;53766;50.280;19.160;2023-04-16T10:47:26;8.18;;;5.15;;
66856;SDS011;53766;50.280;19.160;2023-04-16T10:49:54;10.45;;;5.93;;
66856;SDS011;53766;50.280;19.160;2023-04-16T10:52:24;7.10;;;5.13;;
66856;SDS011;53766;50.280;19.160;2023-04-16T10:54:55;11.07;;;5.57;;
66856;SDS011;53766;50.280;19.160;2023-04-16T10:57:25;8.38;;;5.63;;
66856;SDS011;53766;50.280;19.160;2023-04-16T10:59:55;8.43;;;5.20;;
66856;SDS011;53766;50.280;19.160;2023-04-16T11:02:23;8.05;;;4.63;;
66856;SDS011;53766;50.280;19.160;2023-04-16T11:04:55;7.65;;;4.90;;
66856;SDS011;53766;50.280;19.160;2023-04-16T11:07:31;8.02;;;5.30;;
66856;SDS011;53766;50.280;19.160;2023-04-16T11:10:00;8.45;;;5.10;;
66856;SDS011;53766;50.280;19.160;2023-04-16T11:12:35;7.55;;;5.00;;
66856;SDS011;53766;50.280;19.160;2023-04-16T11:17:44;10.23;;;4.82;;
66856;SDS011;53766;50.280;19.160;2023-04-16T11:20:17;8.75;;;5.35;;
66856;SDS011;53766;50.280;19.160;2023-04-16T11:22:47;7.28;;;4.72;;
66856;SDS011;53766;50.280;19.160;2023-04-16T11:25:19;12.15;;;4.78;;
66856;SDS011;53766;50.280;19.160;2023-04-16T11:27:57;7.78;;;4.70;;
66856;SDS011;53766;50.280;19.160;2023-04-16T11:30:31;9.00;;;5.15;;
66856;SDS011;53766;50.280;19.160;2023-04-16T11:33:03;7.07;;;4.90;;
66856;SDS011;53766;50.280;19.160;2023-04-16T11:35:31;9.40;;;5.05;;
66856;SDS011;53766;50.280;19.160;2023-04-16T11:37:59;9.27;;;5.00;;
66856;SDS011;53766;50.280;19.160;2023-04-16T11:40:30;8.32;;;4.70;;
66856;SDS011;53766;50.280;19.160;2023-04-16T11:43:01;6.38;;;4.72;;
66856;SDS011;53766;50.280;19.160;2023-04-16T11:45:40;7.50;;;4.93;;
66856;SDS011;53766;50.280;19.160;2023-04-16T11:51:15;7.43;;;4.53;;
66856;SDS011;53766;50.280;19.160;2023-04-16T11:53:50;6.53;;;4.38;;
66856;SDS011;53766;50.280;19.160;2023-04-16T11:56:29;5.90;;;4.18;;
66856;SDS011;53766;50.280;19.160;2023-04-16T11:59:32;6.20;;;4.40;;
66856;SDS011;53766;50.280;19.160;2023-04-16T12:01:53;8.50;;;4.53;;
66856;SDS011;53766;50.280;19.160;2023-04-16T12:04:25;7.72;;;4.60;;
66856;SDS011;53766;50.280;19.160;2023-04-16T12:07:09;7.00;;;4.25;;
66856;SDS011;53766;50.280;19.160;2023-04-16T12:09:39;7.15;;;4.38;;
66856;SDS011;53766;50.280;19.160;2023-04-16T12:14:56;7.30;;;4.38;;
66856;SDS011;53766;50.280;19.160;2023-04-16T12:17:26;7.53;;;4.20;;
66856;SDS011;53766;50.280;19.160;2023-04-16T12:19:57;6.38;;;4.28;;
66856;SDS011;53766;50.280;19.160;2023-04-16T12:22:30;8.20;;;4.32;;
66856;SDS011;53766;50.280;19.160;2023-04-16T12:25:04;6.78;;;4.20;;
66856;SDS011;53766;50.280;19.160;2023-04-16T12:30:13;7.05;;;4.15;;
66856;SDS011;53766;50.280;19.160;2023-04-16T12:32:42;7.10;;;4.20;;
66856;SDS011;53766;50.280;19.160;2023-04-16T12:35:11;9.85;;;4.57;;
66856;SDS011;53766;50.280;19.160;2023-04-16T12:37:38;7.53;;;4.57;;
66856;SDS011;53766;50.280;19.160;2023-04-16T12:40:07;7.90;;;4.07;;
66856;SDS011;53766;50.280;19.160;2023-04-16T12:42:35;6.70;;;4.60;;
66856;SDS011;53766;50.280;19.160;2023-04-16T12:45:03;6.90;;;4.30;;
66856;SDS011;53766;50.280;19.160;2023-04-16T12:47:31;6.75;;;4.43;;
66856;SDS011;53766;50.280;19.160;2023-04-16T12:49:59;5.97;;;4.20;;
66856;SDS011;53766;50.280;19.160;2023-04-16T12:52:27;6.90;;;4.10;;
66856;SDS011;53766;50.280;19.160;2023-04-16T12:54:54;6.63;;;4.68;;
66856;SDS011;53766;50.280;19.160;2023-04-16T12:57:22;6.20;;;4.13;;
66856;SDS011;53766;50.280;19.160;2023-04-16T12:59:55;5.90;;;3.95;;
66856;SDS011;53766;50.280;19.160;2023-04-16T13:02:23;8.68;;;4.15;;
66856;SDS011;53766;50.280;19.160;2023-04-16T13:04:52;5.38;;;4.28;;
66856;SDS011;53766;50.280;19.160;2023-04-16T13:07:19;6.72;;;4.28;;
66856;SDS011;53766;50.280;19.160;2023-04-16T13:09:47;9.55;;;3.97;;
66856;SDS011;53766;50.280;19.160;2023-04-16T13:12:14;5.88;;;4.25;;
66856;SDS011;53766;50.280;19.160;2023-04-16T13:14:42;5.47;;;4.00;;
66856;SDS011;53766;50.280;19.160;2023-04-16T13:17:11;5.85;;;4.28;;
66856;SDS011;53766;50.280;19.160;2023-04-16T13:19:38;6.32;;;4.28;;
66856;SDS011;53766;50.280;19.160;2023-04-16T13:22:05;8.65;;;4.50;;
66856;SDS011;53766;50.280;19.160;2023-04-16T13:24:33;7.57;;;4.13;;
66856;SDS011;53766;50.280;19.160;2023-04-16T13:27:00;5.70;;;4.10;;
66856;SDS011;53766;50.280;19.160;2023-04-16T13:29:28;6.45;;;4.45;;
66856;SDS011;53766;50.280;19.160;2023-04-16T13:31:56;5.90;;;4.28;;
66856;SDS011;53766;50.280;19.160;2023-04-16T13:34:24;6.95;;;4.15;;
66856;SDS011;53766;50.280;19.160;2023-04-16T13:36:51;6.50;;;4.35;;
66856;SDS011;53766;50.280;19.160;2023-04-16T13:39:18;6.10;;;4.47;;
66856;SDS011;53766;50.280;19.160;2023-04-16T13:41:46;6.45;;;4.30;;
66856;SDS011;53766;50.280;19.160;2023-04-16T13:44:15;6.63;;;4.60;;
66856;SDS011;53766;50.280;19.160;2023-04-16T13:46:42;6.32;;;4.68;;
66856;SDS011;53766;50.280;19.160;2023-04-16T13:49:13;6.43;;;4.30;;
66856;SDS011;53766;50.280;19.160;2023-04-16T13:51:41;9.05;;;4.97;;
66856;SDS011;53766;50.280;19.160;2023-04-16T13:54:11;8.98;;;5.40;;
66856;SDS011;53766;50.280;19.160;2023-04-16T13:56:38;7.50;;;5.07;;
66856;SDS011;53766;50.280;19.160;2023-04-16T13:59:06;9.10;;;5.20;;
66856;SDS011;53766;50.280;19.160;2023-04-16T14:01:34;11.68;;;5.28;;
66856;SDS011;53766;50.280;19.160;2023-04-16T14:04:02;7.78;;;5.45;;
66856;SDS011;53766;50.280;19.160;2023-04-16T14:06:32;9.20;;;5.55;;
66856;SDS011;53766;50.280;19.160;2023-04-16T14:09:00;7.28;;;5.20;;
66856;SDS011;53766;50.280;19.160;2023-04-16T14:11:28;9.82;;;5.70;;
66856;SDS011;53766;50.280;19.160;2023-04-16T14:13:55;8.60;;;5.03;;
66856;SDS011;53766;50.280;19.160;2023-04-16T14:16:23;8.02;;;5.43;;
66856;SDS011;53766;50.280;19.160;2023-04-16T14:18:51;7.35;;;5.22;;
66856;SDS011;53766;50.280;19.160;2023-04-16T14:21:18;7.82;;;5.20;;
66856;SDS011;53766;50.280;19.160;2023-04-16T14:23:46;6.68;;;5.20;;
66856;SDS011;53766;50.280;19.160;2023-04-16T14:26:13;6.75;;;4.90;;
66856;SDS011;53766;50.280;19.160;2023-04-16T14:28:41;7.22;;;5.18;;
66856;SDS011;53766;50.280;19.160;2023-04-16T14:31:09;7.95;;;5.43;;
66856;SDS011;53766;50.280;19.160;2023-04-16T14:33:36;6.72;;;4.78;;
66856;SDS011;53766;50.280;19.160;2023-04-16T14:36:04;7.82;;;5.45;;
66856;SDS011;53766;50.280;19.160;2023-04-16T14:38:32;9.30;;;5.15;;
66856;SDS011;53766;50.280;19.160;2023-04-16T14:40:59;7.00;;;4.82;;
66856;SDS011;53766;50.280;19.160;2023-04-16T14:43:26;9.13;;;4.97;;
66856;SDS011;53766;50.280;19.160;2023-04-16T14:45:54;6.45;;;4.93;;
66856;SDS011;53766;50.280;19.160;2023-04-16T14:48:24;6.40;;;4.57;;
66856;SDS011;53766;50.280;19.160;2023-04-16T14:50:52;7.47;;;4.85;;